x

Tanner Bank - 121nm West Of San Diego, Ca (46047) Wave Buoy

2:50 - Thu 29th Jun 2017 All times are PDT. -7 hours from GMT.

  • Sig Wave height 5.6ft
  • Swell Direction
  • Peak Period 7s
  • Average Period 6s
  • Wind
    20mph, 25mph gusts
  • Sea Temp 63°f
  • Aire Temp 58°f
  • Sea Pressure 1012.9mb
  • Tanner Bank - 121nm West Of San Diego, Ca
  • Tanner Bank - 121nm West Of San Diego, Ca

More Historic Weather Station data

Upgrade to MSW Pro to gain access to the past 30 days of data for over 8000 Wavebouys and Weather Stations around the globe.

Join Pro

Comparision Forecast

View Surf forecast
   
jue 06/29 2:50 5.5ft 7s 6s 20 25 mph 1012.9mb 63f 58f
1:50 5.5ft 7s 6s 20 25 mph 1013mb 63f 59f
12:50 5ft 7s 5s 18 22 mph 1013.3mb 63f 59f
mié 06/28 10:50 5ft 7s 5s 20 25 mph 1013.3mb 63f 60f
9:50 5ft 7s 5s 18 22 mph 1013.3mb 63f 60f
8:50 5ft 6s 5s 20 25 mph 1012.7mb 63f 60f
7:50 5.5ft 8s 5s 18 25 mph 1013mb 63f 60f
6:50 6ft 7s 5s 18 22 mph 1012.7mb 64f 60f
5:50 6ft 7s 5s 18 20 mph 1012.5mb 64f 60f
4:50 6.5ft 7s 5s 20 25 mph 1012.1mb 64f 60f
3:50 7ft 7s 6s 20 25 mph 1012.4mb 64f 61f
2:50 7ft 7s 6s 20 25 mph 1013.1mb 64f 60f
1:50 6ft 7s 5s 22 25 mph 1013.2mb 63f 60f
12:50 6ft 8s 5s 20 25 mph 1013.6mb 63f 60f
10:50 6ft 7s 5s 20 25 mph 1013.3mb 63f 60f
9:50 5.5ft 7s 5s 18 22 mph 1013.3mb 63f 60f
8:50 6ft 7s 5s 20 25 mph 1012.8mb 63f 59f
7:50 6ft 8s 6s 20 25 mph 1012.7mb 63f 59f
6:50 6ft 7s 6s 20 22 mph 1012.5mb 63f 59f
5:50 6ft 8s 6s 22 27 mph 1012.1mb 63f 59f
4:50 6.5ft 7s 6s 20 27 mph 1011.9mb 63f 59f
3:50 7ft 7s 6s 20 27 mph 1011.7mb 63f 59f
2:50 6.5ft 8s 6s 20 25 mph 1011.8mb 63f 59f
1:50 7ft 7s 6s 20 25 mph 1012mb 63f 59f
12:50 7ft 7s 6s 20 25 mph 1012.4mb 64f 60f
mar 06/27 11:50 6.5ft 7s 6s 20 25 mph 1012.7mb 64f 60f
10:50 6ft 7s 6s 20 27 mph 1012.8mb 63f 60f
9:50 6.5ft 7s 5s 18 22 mph 1012.9mb 63f 60f
8:50 6.5ft 7s 5s 18 22 mph 1012.3mb 63f 60f
7:50 6ft 7s 5s 20 27 mph 1011.9mb 63f 60f
6:50 6ft 7s 5s 22 27 mph 1011.8mb 63f 60f
5:50 6.5ft 7s 5s 22 27 mph 1011.9mb 63f 61f
4:50 6.5ft 7s 5s 22 29 mph 1012.3mb 63f 61f
3:50 6.5ft 7s 5s 22 27 mph 1012.9mb 63f 61f
2:50 6.5ft 7s 5s 20 25 mph 1013.4mb 63f 61f
1:50 7ft 7s 5s 20 27 mph 1013.6mb 63f 61f
12:50 6.5ft 7s 5s 22 27 mph 1013.7mb 63f 61f
11:50 6.5ft 7s 6s 22 27 mph 1013.9mb 63f 61f
10:50 7ft 7s 6s 22 27 mph 1013.9mb 63f 60f
9:50 6ft 7s 5s 25 29 mph 1013.4mb 63f 60f
8:50 5.5ft 7s 6s 22 27 mph 1013.5mb 63f 60f
7:50 5ft 7s 5s 20 22 mph 1013.5mb 63f 62f
6:50 5.5ft 7s 5s 20 22 mph 1013mb 63f 62f
5:50 5.5ft 7s 5s 20 25 mph 1012.4mb 63f 62f
4:50 6ft 6s 5s 20 25 mph 1012.1mb 63f 63f
3:50 6ft 6s 5s 22 29 mph 1011.7mb 63f 63f
2:50 6.5ft 7s 5s 25 29 mph 1011.8mb 63f 63f
1:50 6ft 6s 5s 25 27 mph 1011.9mb 63f 63f
12:50 7ft 6s 6s 25 29 mph 1012.2mb 63f 63f
lun 06/26 11:50 6.5ft 14s 5s 25 31 mph 1012.6mb 63f 63f
10:50 6ft 15s 5s 25 29 mph 1012.8mb 63f 63f
9:50 6ft 7s 5s 25 29 mph 1012.6mb 63f 63f
8:50 6ft 7s 5s 22 27 mph 1012.8mb 63f 63f
7:50 5ft 13s 5s 22 27 mph 1012.8mb 63f 63f
6:50 5ft 15s 5s 22 27 mph 1013mb 63f 63f
5:50 5ft 14s 5s 20 25 mph 1013.4mb 63f 63f
4:50 5.5ft 15s 5s 20 22 mph 1014.1mb 63f 63f
3:50 6ft 7s 5s 18 22 mph 1014.4mb 63f 63f
2:50 5.5ft 7s 5s 20 27 mph 1014.4mb 63f 63f
1:50 6ft 6s 6s 20 25 mph 1014.3mb 63f 63f
12:50 6ft 6s 6s 20 22 mph 1014.7mb 63f 63f
11:50 6ft 7s 6s 18 20 mph 1015.1mb 63f 63f
10:50 6ft 6s 6s 18 20 mph 1014.5mb 63f 63f
9:50 6ft 7s 6s 18 22 mph 1014mb 62f 63f
8:50 6ft 6s 6s 20 27 mph 1013.7mb 62f 63f
7:50 5ft 14s 5s 22 27 mph 1013.4mb 62f 63f
6:50 5.5ft 14s 5s 18 22 mph 1013.4mb 62f 62f
5:50 6ft 15s 5s 20 25 mph 1012.8mb 62f 62f
4:50 6ft 13s 6s 20 25 mph 1012.4mb 62f 62f
3:50 6.5ft 6s 5s 22 27 mph 1012.1mb 62f 62f
2:50 7ft 6s 6s 22 27 mph 1012.5mb 62f 62f
12:50 7ft 7s 6s 20 25 mph 1012.9mb 62f 62f
dom 06/25 11:50 6ft 7s 5s 22 25 mph 1012.9mb 62f 61f
10:50 6ft 14s 5s 25 29 mph 1012.8mb 62f 61f
9:50 6ft 14s 6s 25 29 mph 1012.7mb 62f 60f
8:50 5.5ft 14s 5s 22 27 mph 1013mb 62f 60f
7:50 6ft 14s 5s 22 27 mph 1013mb 62f 61f
6:50 5.5ft 13s 5s 25 29 mph 1012.6mb 62f 61f
5:50 5.5ft 14s 5s 22 27 mph 1012.7mb 62f 61f
4:50 5.5ft 14s 5s 20 25 mph 1012.9mb 63f 60f
3:50 6ft 7s 5s 20 25 mph 1013.6mb 62f 60f
2:50 6ft 7s 6s 18 25 mph 1014.2mb 62f 60f
1:50 6ft 7s 6s 20 25 mph 1013.9mb 62f 60f
12:50 6.5ft 7s 6s 18 22 mph 1014.1mb 62f 60f
11:50 7ft 7s 6s 18 22 mph 1014.1mb 62f 60f